createdAt,value
2019-01-27T00:00:50.341Z,8.00
2019-01-27T00:03:17.896Z,8.00
2019-01-27T00:05:45.350Z,8.00
2019-01-27T00:08:13.643Z,8.00
2019-01-27T00:10:40.301Z,8.00
2019-01-27T00:13:07.759Z,8.00
2019-01-27T00:15:35.237Z,8.00
2019-01-27T00:18:02.777Z,8.00
2019-01-27T00:20:30.347Z,8.00
2019-01-27T00:22:57.797Z,8.00
2019-01-27T00:25:25.373Z,8.00
2019-01-27T00:27:52.929Z,8.00
2019-01-27T00:30:21.185Z,8.00
2019-01-27T00:32:48.639Z,8.00
2019-01-27T00:35:16.118Z,8.00
2019-01-27T00:37:43.563Z,8.00
2019-01-27T00:40:11.069Z,8.00
2019-01-27T00:42:38.625Z,8.00
2019-01-27T00:45:06.095Z,8.00
2019-01-27T00:47:35.077Z,8.00
2019-01-27T00:50:04.903Z,8.00
2019-01-27T00:52:32.353Z,8.00
2019-01-27T00:54:59.817Z,8.00
2019-01-27T00:57:27.372Z,8.00
2019-01-27T00:59:54.837Z,8.00
2019-01-27T01:02:22.308Z,8.00
2019-01-27T01:04:49.884Z,8.00
2019-01-27T01:07:18.122Z,8.10
2019-01-27T01:09:45.572Z,8.00
2019-01-27T01:12:13.050Z,8.10
2019-01-27T01:14:40.537Z,8.00
2019-01-27T01:17:08.100Z,8.00
2019-01-27T01:19:35.568Z,8.00
2019-01-27T01:22:03.573Z,8.00
2019-01-27T01:24:31.789Z,8.00
2019-01-27T01:26:59.243Z,7.90
2019-01-27T01:29:26.741Z,7.90
2019-01-27T01:31:54.195Z,7.90
2019-01-27T01:34:21.653Z,7.90
2019-01-27T01:36:49.238Z,7.90
2019-01-27T01:39:16.678Z,7.90
2019-01-27T01:41:44.293Z,7.90
2019-01-27T01:44:12.534Z,8.00
2019-01-27T01:46:40.053Z,7.90
2019-01-27T01:49:07.568Z,8.00
2019-01-27T01:51:35.045Z,8.00
2019-01-27T01:54:02.594Z,8.00
2019-01-27T01:56:30.051Z,8.00
2019-01-27T01:58:57.522Z,8.00
2019-01-27T02:01:25.075Z,8.00
2019-01-27T02:03:52.641Z,8.00
2019-01-27T02:06:20.209Z,8.00
2019-01-27T02:08:47.758Z,8.00
2019-01-27T02:11:15.226Z,8.00
2019-01-27T02:13:42.686Z,8.00
2019-01-27T02:16:10.142Z,8.00
2019-01-27T02:18:37.622Z,8.00
2019-01-27T02:21:05.856Z,8.00
2019-01-27T02:23:33.344Z,8.00
2019-01-27T02:26:00.862Z,8.00
2019-01-27T02:28:29.006Z,8.00
2019-01-27T02:30:56.465Z,7.90
2019-01-27T02:33:24.016Z,7.90
2019-01-27T02:35:51.594Z,7.90
2019-01-27T02:38:19.148Z,7.90
2019-01-27T02:40:46.612Z,7.90
2019-01-27T02:43:14.061Z,7.90
2019-01-27T02:45:42.282Z,7.90
2019-01-27T02:48:10.500Z,7.80
2019-01-27T02:50:37.965Z,7.80
2019-01-27T02:53:05.421Z,7.80
2019-01-27T02:55:33.672Z,7.80
2019-01-27T02:58:01.916Z,7.80
2019-01-27T03:00:29.437Z,7.80
2019-01-27T03:02:56.955Z,7.80
2019-01-27T03:08:20.844Z,7.80
2019-01-27T03:10:48.308Z,7.80
2019-01-27T03:13:15.839Z,7.80
2019-01-27T03:15:43.295Z,7.70
2019-01-27T03:18:10.753Z,7.70
2019-01-27T03:20:38.206Z,7.70
2019-01-27T03:23:05.762Z,7.70
2019-01-27T03:25:33.245Z,7.70
2019-01-27T03:28:00.814Z,7.70
2019-01-27T03:30:28.266Z,7.70
2019-01-27T03:32:55.754Z,7.70
2019-01-27T03:35:23.224Z,7.70
2019-01-27T03:37:51.557Z,7.70
2019-01-27T03:40:19.061Z,7.70
2019-01-27T03:42:46.623Z,7.70
2019-01-27T03:45:19.711Z,7.70
2019-01-27T03:47:47.153Z,7.70
2019-01-27T03:50:17.226Z,7.70
2019-01-27T03:52:45.466Z,7.70
2019-01-27T03:55:15.380Z,7.70
2019-01-27T03:57:42.837Z,7.70
2019-01-27T04:00:13.136Z,7.70
2019-01-27T04:02:40.578Z,7.70
2019-01-27T04:05:08.922Z,7.70
2019-01-27T04:07:36.385Z,7.70
2019-01-27T04:10:03.941Z,7.70
2019-01-27T04:12:31.399Z,7.70
2019-01-27T04:14:58.849Z,7.70
2019-01-27T04:17:26.303Z,7.70
2019-01-27T04:19:53.803Z,7.70
2019-01-27T04:22:21.264Z,7.70
2019-01-27T04:24:48.713Z,7.70
2019-01-27T04:27:16.191Z,7.60
2019-01-27T04:29:43.758Z,7.70
2019-01-27T04:32:11.297Z,7.70
2019-01-27T04:34:38.766Z,7.70
2019-01-27T04:37:06.232Z,7.70
2019-01-27T04:39:33.718Z,7.70
2019-01-27T04:42:01.983Z,7.70
2019-01-27T04:44:29.443Z,7.70
2019-01-27T04:46:56.903Z,7.70
2019-01-27T04:49:24.342Z,7.70
2019-01-27T04:51:51.799Z,7.70
2019-01-27T04:54:19.277Z,7.70
2019-01-27T04:56:46.842Z,7.70
2019-01-27T04:59:14.295Z,7.70
2019-01-27T05:01:41.753Z,7.70
2019-01-27T05:04:09.218Z,7.70
2019-01-27T05:06:36.675Z,7.70
2019-01-27T05:09:04.254Z,7.70
2019-01-27T05:11:31.817Z,7.70
2019-01-27T05:13:59.269Z,7.60
2019-01-27T05:16:26.758Z,7.70
2019-01-27T05:18:54.895Z,7.70
2019-01-27T05:21:22.341Z,7.70
2019-01-27T05:23:49.842Z,7.60
2019-01-27T05:26:17.286Z,7.60
2019-01-27T05:28:44.751Z,7.70
2019-01-27T05:31:12.209Z,7.70
2019-01-27T05:33:39.691Z,7.70
2019-01-27T05:36:07.257Z,7.70
2019-01-27T05:38:34.825Z,7.70
2019-01-27T05:41:02.293Z,7.70
2019-01-27T05:43:29.745Z,7.70
2019-01-27T05:45:57.209Z,7.70
2019-01-27T05:48:24.676Z,7.70
2019-01-27T05:50:52.235Z,7.70
2019-01-27T05:53:19.799Z,7.70
2019-01-27T05:55:47.262Z,7.70
2019-01-27T05:58:14.734Z,7.70
2019-01-27T06:00:42.990Z,7.70
2019-01-27T06:03:10.457Z,7.70
2019-01-27T06:05:38.019Z,7.70
2019-01-27T06:08:05.593Z,7.70
2019-01-27T06:10:33.144Z,7.70
2019-01-27T06:13:00.589Z,7.70
2019-01-27T06:15:28.056Z,7.70
2019-01-27T06:17:55.539Z,7.60
2019-01-27T06:20:23.005Z,7.60
2019-01-27T06:22:50.490Z,7.60
2019-01-27T06:25:18.731Z,7.60
2019-01-27T06:27:46.195Z,7.60
2019-01-27T06:30:17.507Z,7.60
2019-01-27T06:32:50.410Z,7.50
2019-01-27T06:35:17.910Z,7.50
2019-01-27T06:37:45.368Z,7.60
2019-01-27T06:40:12.925Z,7.50
2019-01-27T06:42:40.373Z,7.50
2019-01-27T06:45:07.860Z,7.60
2019-01-27T06:47:35.416Z,7.60
2019-01-27T06:50:02.974Z,7.50
2019-01-27T06:52:30.549Z,7.50
2019-01-27T06:54:58.003Z,7.50
2019-01-27T06:57:25.464Z,7.60
2019-01-27T06:59:52.929Z,7.50
2019-01-27T07:02:20.397Z,7.50
2019-01-27T07:04:47.859Z,7.50
2019-01-27T07:07:21.341Z,7.50
2019-01-27T07:09:54.724Z,7.50
2019-01-27T07:12:26.126Z,7.50
2019-01-27T07:15:00.196Z,7.50
2019-01-27T07:17:30.090Z,7.50
2019-01-27T07:20:03.454Z,7.50
2019-01-27T07:22:30.877Z,7.50
2019-01-27T07:24:58.352Z,7.50
2019-01-27T07:30:37.821Z,7.50
2019-01-27T07:33:08.837Z,7.50
2019-01-27T07:35:37.201Z,7.50
2019-01-27T07:38:04.665Z,7.50
2019-01-27T07:40:34.672Z,7.50
2019-01-27T07:43:04.645Z,7.50
2019-01-27T07:45:42.760Z,7.50
2019-01-27T07:48:12.734Z,7.50
2019-01-27T07:50:40.191Z,7.50
2019-01-27T07:53:08.213Z,7.50
2019-01-27T07:55:39.474Z,7.50
2019-01-27T07:58:07.829Z,7.50
2019-01-27T08:00:36.609Z,7.50
2019-01-27T08:03:15.910Z,7.50
2019-01-27T08:05:58.240Z,7.60
2019-01-27T08:08:27.236Z,7.60
2019-01-27T08:10:58.173Z,7.60
2019-01-27T08:13:25.657Z,7.60
2019-01-27T08:15:53.912Z,7.60
2019-01-27T08:18:24.270Z,7.60
2019-01-27T08:21:07.549Z,7.50
2019-01-27T08:23:37.472Z,7.50
2019-01-27T08:29:17.019Z,7.60
2019-01-27T08:31:44.491Z,7.50
2019-01-27T08:34:13.751Z,7.50
2019-01-27T08:36:47.099Z,7.50
2019-01-27T08:39:15.316Z,7.50
2019-01-27T08:41:48.410Z,7.50
2019-01-27T08:44:16.778Z,7.50
2019-01-27T08:46:44.240Z,7.50
2019-01-27T08:49:11.737Z,7.50
2019-01-27T08:51:39.215Z,7.50
2019-01-27T08:54:06.767Z,7.50
2019-01-27T08:56:36.196Z,7.60
2019-01-27T08:59:04.775Z,7.60
2019-01-27T09:01:42.150Z,7.50
2019-01-27T09:04:12.449Z,7.50
2019-01-27T09:06:44.840Z,7.60
2019-01-27T09:09:20.901Z,7.60
2019-01-27T09:11:52.367Z,7.60
2019-01-27T09:14:21.762Z,7.60
2019-01-27T09:16:50.635Z,7.60
2019-01-27T09:19:18.096Z,7.70
2019-01-27T09:21:45.557Z,7.70
2019-01-27T09:24:30.955Z,7.70
2019-01-27T09:26:58.957Z,7.70
2019-01-27T09:29:30.814Z,7.80
2019-01-27T09:32:04.933Z,7.70
2019-01-27T09:34:48.054Z,7.70
2019-01-27T09:37:16.290Z,7.70
2019-01-27T09:42:45.436Z,7.80
2019-01-27T09:45:13.309Z,7.80
2019-01-27T09:47:48.190Z,7.80
2019-01-27T09:50:19.285Z,7.70
2019-01-27T09:52:50.402Z,7.70
2019-01-27T09:55:33.610Z,7.80
2019-01-27T09:58:06.933Z,7.70
2019-01-27T10:00:37.019Z,7.70
2019-01-27T10:03:06.456Z,7.80
2019-01-27T10:05:37.258Z,7.70
2019-01-27T10:08:04.931Z,7.80
2019-01-27T10:10:36.360Z,7.70
2019-01-27T10:13:05.374Z,7.70
2019-01-27T10:15:35.807Z,7.70
2019-01-27T10:18:03.273Z,7.60
2019-01-27T10:20:45.637Z,7.60
2019-01-27T10:23:13.844Z,7.60
2019-01-27T10:25:41.865Z,7.60
2019-01-27T10:28:09.765Z,7.70
2019-01-27T10:30:41.419Z,7.60
2019-01-27T10:33:28.429Z,7.60
2019-01-27T10:36:05.789Z,7.50
2019-01-27T10:38:33.262Z,7.40
2019-01-27T10:41:01.534Z,7.30
2019-01-27T10:46:24.403Z,7.20
2019-01-27T10:49:11.524Z,7.00
2019-01-27T10:51:40.485Z,6.80
2019-01-27T10:54:14.226Z,6.80
2019-01-27T10:56:43.384Z,6.80
2019-01-27T10:59:16.514Z,6.80
2019-01-27T11:01:57.407Z,6.80
2019-01-27T11:04:26.470Z,6.80
2019-01-27T11:06:55.522Z,6.80
2019-01-27T11:09:24.017Z,6.80
2019-01-27T11:11:57.107Z,6.90
2019-01-27T11:14:31.179Z,6.90
2019-01-27T11:17:01.210Z,6.80
2019-01-27T11:19:29.271Z,6.80
2019-01-27T11:22:13.137Z,6.70
2019-01-27T11:24:53.390Z,6.60
2019-01-27T11:27:33.014Z,6.60
2019-01-27T11:30:00.840Z,6.50
2019-01-27T11:32:39.087Z,6.50
2019-01-27T11:35:08.018Z,6.50
2019-01-27T11:37:36.420Z,6.50
2019-01-27T11:40:18.761Z,6.50
2019-01-27T11:42:49.788Z,6.40
2019-01-27T11:45:18.026Z,6.20
2019-01-27T11:47:45.477Z,6.20
2019-01-27T11:50:12.932Z,6.20
2019-01-27T11:52:40.370Z,6.10
2019-01-27T11:55:07.846Z,6.10
2019-01-27T11:57:35.302Z,6.10
2019-01-27T12:00:02.777Z,5.90
2019-01-27T12:02:30.249Z,5.90
2019-01-27T12:04:57.724Z,6.00
2019-01-27T12:07:25.173Z,5.90
2019-01-27T12:09:52.631Z,5.90
2019-01-27T12:12:20.097Z,6.00
2019-01-27T12:14:47.553Z,6.10
2019-01-27T12:17:15.052Z,6.10
2019-01-27T12:19:42.523Z,6.10
2019-01-27T12:22:10.772Z,6.20
2019-01-27T12:24:38.223Z,6.20
2019-01-27T12:27:05.687Z,6.30
2019-01-27T12:29:33.153Z,6.30
2019-01-27T12:32:00.636Z,6.30
2019-01-27T12:34:28.097Z,6.30
2019-01-27T12:36:55.548Z,6.30
2019-01-27T12:39:23.010Z,6.30
2019-01-27T12:41:50.480Z,6.40
2019-01-27T12:44:18.033Z,6.50
2019-01-27T12:46:45.505Z,6.50
2019-01-27T12:49:13.773Z,6.40
2019-01-27T12:51:42.049Z,6.40
2019-01-27T12:54:09.534Z,6.40
2019-01-27T12:56:36.999Z,6.40
2019-01-27T12:59:04.445Z,6.40
2019-01-27T13:01:31.899Z,6.40
2019-01-27T13:03:59.350Z,6.30
2019-01-27T13:06:26.801Z,6.30
2019-01-27T13:08:54.302Z,6.30
2019-01-27T13:11:22.563Z,6.30
2019-01-27T13:13:50.042Z,6.20
2019-01-27T13:16:17.597Z,6.20
2019-01-27T13:18:45.061Z,6.10
2019-01-27T13:21:12.530Z,6.20
2019-01-27T13:23:40.082Z,6.20
2019-01-27T13:26:07.638Z,6.10
2019-01-27T13:28:35.112Z,6.10
2019-01-27T13:31:02.666Z,6.20
2019-01-27T13:33:30.130Z,6.10
2019-01-27T13:35:57.582Z,6.10
2019-01-27T13:38:25.139Z,6.20
2019-01-27T13:40:52.622Z,6.30
2019-01-27T13:43:20.066Z,6.30
2019-01-27T13:45:47.654Z,6.40
2019-01-27T13:48:15.102Z,6.40
2019-01-27T13:50:42.666Z,6.40
2019-01-27T13:53:10.125Z,6.40
2019-01-27T13:55:37.567Z,6.40
2019-01-27T13:58:05.052Z,6.40
2019-01-27T14:00:36.323Z,6.40
2019-01-27T14:03:03.865Z,6.40
2019-01-27T14:05:31.348Z,6.40
2019-01-27T14:07:58.787Z,6.40
2019-01-27T14:10:26.249Z,6.40
2019-01-27T14:12:53.813Z,6.20
2019-01-27T14:15:22.017Z,6.20
2019-01-27T14:17:50.253Z,6.10
2019-01-27T14:20:17.734Z,6.00
2019-01-27T14:22:45.192Z,6.00
2019-01-27T14:25:12.655Z,6.00
2019-01-27T14:27:40.213Z,5.90
2019-01-27T14:30:11.100Z,5.70
2019-01-27T14:32:38.525Z,5.60
2019-01-27T14:35:07.510Z,5.50
2019-01-27T14:37:35.082Z,5.60
2019-01-27T14:40:02.547Z,5.50
2019-01-27T14:42:30.015Z,5.60
2019-01-27T14:44:57.576Z,5.50
2019-01-27T14:47:25.023Z,5.70
2019-01-27T14:49:52.491Z,5.70
2019-01-27T14:52:20.061Z,5.80
2019-01-27T14:54:47.537Z,5.80
2019-01-27T14:57:14.993Z,5.90
2019-01-27T14:59:42.539Z,6.00
2019-01-27T15:02:10.093Z,6.00
2019-01-27T15:04:37.596Z,6.00
2019-01-27T15:07:05.039Z,6.00
2019-01-27T15:09:32.509Z,5.90
2019-01-27T15:12:00.049Z,5.60
2019-01-27T15:14:27.505Z,5.40
2019-01-27T15:16:54.986Z,5.50
2019-01-27T15:19:22.450Z,5.40
2019-01-27T15:21:49.911Z,5.40
2019-01-27T15:24:17.452Z,5.50
2019-01-27T15:26:44.923Z,5.50
2019-01-27T15:29:12.489Z,5.50
2019-01-27T15:31:39.950Z,5.60
2019-01-27T15:34:07.407Z,5.60
2019-01-27T15:36:34.851Z,5.60
2019-01-27T15:39:02.297Z,5.70
2019-01-27T15:41:29.789Z,5.70
2019-01-27T15:43:57.250Z,5.80
2019-01-27T15:46:24.720Z,5.80
2019-01-27T15:48:52.166Z,5.80
2019-01-27T15:51:20.035Z,5.90
2019-01-27T15:53:47.526Z,5.90
2019-01-27T15:56:15.130Z,5.90
2019-01-27T15:58:43.361Z,5.90
2019-01-27T16:01:10.833Z,5.90
2019-01-27T16:03:38.345Z,5.90
2019-01-27T16:06:05.837Z,5.80
2019-01-27T16:08:33.302Z,5.80
2019-01-27T16:11:00.774Z,5.80
2019-01-27T16:13:28.236Z,5.80
2019-01-27T16:15:55.700Z,5.90
2019-01-27T16:18:23.263Z,5.90
2019-01-27T16:20:53.158Z,5.80
2019-01-27T16:23:35.511Z,5.90
2019-01-27T16:26:04.674Z,5.90
2019-01-27T16:28:32.233Z,5.90
2019-01-27T16:31:03.640Z,6.00
2019-01-27T16:33:36.741Z,6.00
2019-01-27T16:36:04.237Z,5.90
2019-01-27T16:38:31.701Z,6.00
2019-01-27T16:40:59.257Z,5.90
2019-01-27T16:43:26.723Z,6.00
2019-01-27T16:45:54.185Z,6.00
2019-01-27T16:48:21.635Z,5.90
2019-01-27T16:50:49.120Z,5.90
2019-01-27T16:53:16.559Z,5.90
2019-01-27T16:55:44.533Z,5.90
2019-01-27T16:58:12.754Z,6.00
2019-01-27T17:00:40.959Z,6.10
2019-01-27T17:03:08.483Z,6.00
2019-01-27T17:05:35.981Z,6.00
2019-01-27T17:08:04.713Z,6.20
2019-01-27T17:10:32.280Z,6.10
2019-01-27T17:13:00.251Z,6.20
2019-01-27T17:15:27.325Z,6.20
2019-01-27T17:17:54.965Z,6.10
2019-01-27T17:20:25.811Z,6.20
2019-01-27T17:22:50.704Z,6.20
2019-01-27T17:25:18.146Z,6.20
2019-01-27T17:27:45.643Z,6.10
2019-01-27T17:30:18.989Z,6.10
2019-01-27T17:32:46.473Z,6.10
2019-01-27T17:35:13.934Z,6.10
2019-01-27T17:37:41.414Z,6.10
2019-01-27T17:40:09.818Z,6.10
2019-01-27T17:42:37.375Z,6.20
2019-01-27T17:45:05.650Z,6.10
2019-01-27T17:47:33.218Z,6.10
2019-01-27T17:50:01.230Z,6.10
2019-01-27T17:52:28.199Z,6.10
2019-01-27T17:54:55.669Z,6.20
2019-01-27T17:57:23.127Z,6.10
2019-01-27T17:59:50.598Z,6.10
2019-01-27T18:02:34.778Z,6.10
2019-01-27T18:05:02.303Z,6.10
2019-01-27T18:07:30.476Z,6.10
2019-01-27T18:10:00.530Z,6.10
2019-01-27T18:12:28.420Z,6.10
2019-01-27T18:14:55.869Z,6.10
2019-01-27T18:17:23.425Z,6.10
2019-01-27T18:19:50.981Z,6.10
2019-01-27T18:22:18.549Z,6.20
2019-01-27T18:24:46.012Z,6.20
2019-01-27T18:27:13.560Z,6.20
2019-01-27T18:29:41.017Z,6.10
2019-01-27T18:32:08.505Z,6.10
2019-01-27T18:34:35.984Z,6.00
2019-01-27T18:37:05.791Z,5.90
2019-01-27T18:39:32.325Z,5.90
2019-01-27T18:41:59.886Z,5.90
2019-01-27T18:44:27.337Z,5.90
2019-01-27T18:46:54.818Z,5.90
2019-01-27T18:49:22.282Z,5.90
2019-01-27T18:51:51.279Z,6.00
2019-01-27T18:54:23.618Z,6.00
2019-01-27T18:56:51.072Z,6.00
2019-01-27T18:59:28.185Z,6.00
2019-01-27T19:02:09.408Z,6.00
2019-01-27T19:07:29.793Z,5.90
2019-01-27T19:10:01.608Z,5.90
2019-01-27T19:12:34.854Z,5.90
2019-01-27T19:15:02.309Z,5.90
2019-01-27T19:17:33.121Z,5.80
2019-01-27T19:20:01.363Z,5.80
2019-01-27T19:22:31.269Z,5.80
2019-01-27T19:25:01.498Z,5.60
2019-01-27T19:27:32.622Z,5.70
2019-01-27T19:30:05.609Z,5.60
2019-01-27T19:32:34.722Z,5.60
2019-01-27T19:35:08.767Z,5.70
2019-01-27T19:37:38.695Z,5.60
2019-01-27T19:40:06.600Z,5.70
2019-01-27T19:42:51.535Z,5.60
2019-01-27T19:45:22.425Z,5.60
2019-01-27T19:47:50.670Z,5.60
2019-01-27T19:50:24.662Z,5.60
2019-01-27T19:52:53.097Z,5.50
2019-01-27T19:55:21.951Z,5.50
2019-01-27T19:58:04.317Z,5.50
2019-01-27T20:00:45.487Z,5.50
2019-01-27T20:03:18.662Z,5.50
2019-01-27T20:05:48.584Z,5.50
2019-01-27T20:11:19.965Z,5.50
2019-01-27T20:13:53.129Z,5.60
2019-01-27T20:16:26.167Z,5.50
2019-01-27T20:18:59.292Z,5.50
2019-01-27T20:21:28.684Z,5.50
2019-01-27T20:26:55.978Z,5.40
2019-01-27T20:29:29.053Z,5.40
2019-01-27T20:31:56.513Z,5.40
2019-01-27T20:34:42.699Z,5.30
2019-01-27T20:37:16.164Z,5.40
2019-01-27T20:39:43.623Z,5.40
2019-01-27T20:42:11.082Z,5.40
2019-01-27T20:44:40.115Z,5.40
2019-01-27T20:47:24.377Z,5.40
2019-01-27T20:49:56.506Z,5.40
2019-01-27T20:52:27.733Z,5.30
2019-01-27T20:54:56.262Z,5.30
2019-01-27T20:57:28.179Z,5.30
2019-01-27T20:59:55.698Z,5.40
2019-01-27T21:02:38.845Z,5.40
2019-01-27T21:05:06.909Z,5.30
2019-01-27T21:07:35.305Z,5.40
2019-01-27T21:10:12.470Z,5.40
2019-01-27T21:12:49.153Z,5.40
2019-01-27T21:15:17.438Z,5.40
2019-01-27T21:17:44.921Z,5.40
2019-01-27T21:20:12.402Z,5.40
2019-01-27T21:22:40.636Z,5.40
2019-01-27T21:25:08.937Z,5.40
2019-01-27T21:27:36.417Z,5.40
2019-01-27T21:30:08.504Z,5.50
2019-01-27T21:32:35.985Z,5.40
2019-01-27T21:35:04.702Z,5.50
2019-01-27T21:37:32.190Z,5.50
2019-01-27T21:39:59.691Z,5.50
2019-01-27T21:42:28.014Z,5.50
2019-01-27T21:44:55.535Z,5.40
2019-01-27T21:47:22.995Z,5.40
2019-01-27T21:49:50.519Z,5.40
2019-01-27T21:52:18.003Z,5.40
2019-01-27T21:54:46.474Z,5.40
2019-01-27T21:57:16.585Z,5.30
2019-01-27T21:59:46.953Z,5.40
2019-01-27T22:02:15.280Z,5.40
2019-01-27T22:04:43.753Z,5.40
2019-01-27T22:07:13.249Z,5.40
2019-01-27T22:09:41.923Z,5.40
2019-01-27T22:12:11.642Z,5.40
2019-01-27T22:14:42.510Z,5.50
2019-01-27T22:17:10.062Z,5.40
2019-01-27T22:19:38.603Z,5.40
2019-01-27T22:22:06.204Z,5.40
2019-01-27T22:24:33.667Z,5.40
2019-01-27T22:27:01.131Z,5.40
2019-01-27T22:29:28.622Z,5.40
2019-01-27T22:31:56.861Z,5.40
2019-01-27T22:34:24.308Z,5.40
2019-01-27T22:36:51.785Z,5.40
2019-01-27T22:39:19.235Z,5.40
2019-01-27T22:41:46.702Z,5.40
2019-01-27T22:44:14.207Z,5.50
2019-01-27T22:46:41.766Z,5.50
2019-01-27T22:49:09.238Z,5.60
2019-01-27T22:51:36.797Z,5.70
2019-01-27T22:54:04.242Z,5.90
2019-01-27T22:56:31.735Z,6.00
2019-01-27T22:58:59.186Z,6.10
2019-01-27T23:01:26.644Z,6.10
2019-01-27T23:03:54.205Z,6.00
2019-01-27T23:06:21.653Z,6.00
2019-01-27T23:08:49.103Z,6.00
2019-01-27T23:11:16.604Z,5.90
2019-01-27T23:13:44.173Z,6.00
2019-01-27T23:16:11.719Z,6.00
2019-01-27T23:18:39.294Z,6.00
2019-01-27T23:21:06.760Z,6.00
2019-01-27T23:23:34.211Z,6.10
2019-01-27T23:26:01.803Z,6.10
2019-01-27T23:28:30.104Z,6.10
2019-01-27T23:30:57.616Z,6.00
2019-01-27T23:33:25.125Z,6.10
2019-01-27T23:35:52.636Z,6.10
2019-01-27T23:38:20.241Z,6.10
2019-01-27T23:40:48.470Z,6.00
2019-01-27T23:43:15.929Z,6.00
2019-01-27T23:45:43.405Z,6.00
2019-01-27T23:48:10.977Z,6.00
2019-01-27T23:50:38.534Z,6.00
2019-01-27T23:53:06.075Z,6.00
2019-01-27T23:55:33.618Z,6.00
2019-01-27T23:58:01.227Z,6.00
